createdAt,value
2023-05-10T00:00:12.217Z,60.00
2023-05-10T00:02:41.661Z,58.80
2023-05-10T00:05:08.395Z,64.03
2023-05-10T00:07:34.838Z,64.80
2023-05-10T00:10:01.242Z,67.78
2023-05-10T00:12:27.598Z,69.72
2023-05-10T00:14:53.952Z,71.00
2023-05-10T00:17:20.400Z,74.68
2023-05-10T00:19:46.786Z,65.90
2023-05-10T00:22:13.160Z,70.28
2023-05-10T00:24:39.646Z,74.78
2023-05-10T00:27:10.689Z,74.20
2023-05-10T00:29:37.015Z,71.78
2023-05-10T00:32:03.587Z,80.78
2023-05-10T00:34:30.072Z,81.00
2023-05-10T00:36:57.140Z,82.80
2023-05-10T00:39:23.518Z,103.55
2023-05-10T00:41:49.915Z,89.47
2023-05-10T00:44:19.388Z,98.35
2023-05-10T00:46:46.213Z,89.05
2023-05-10T00:49:13.751Z,98.63
2023-05-10T00:51:42.470Z,144.20
2023-05-10T00:54:08.884Z,121.50
2023-05-10T00:56:35.275Z,123.72
2023-05-10T00:59:02.148Z,140.38
2023-05-10T01:01:29.084Z,191.68
2023-05-10T01:03:55.884Z,158.43
2023-05-10T01:06:22.348Z,123.28
2023-05-10T01:08:48.729Z,171.98
2023-05-10T01:11:15.283Z,135.85
2023-05-10T01:13:44.293Z,168.75
2023-05-10T01:16:11.643Z,143.93
2023-05-10T01:18:39.543Z,160.07
2023-05-10T01:21:15.058Z,142.20
2023-05-10T01:23:46.511Z,158.23
2023-05-10T01:26:31.836Z,163.15
2023-05-10T01:29:01.260Z,167.73
2023-05-10T01:31:27.596Z,142.90
2023-05-10T01:33:56.983Z,144.52
2023-05-10T01:36:52.688Z,149.35
2023-05-10T01:39:25.940Z,144.70
2023-05-10T01:41:55.465Z,151.85
2023-05-10T01:44:37.944Z,146.00
2023-05-10T01:47:07.243Z,125.57
2023-05-10T01:49:37.626Z,126.25
2023-05-10T01:52:14.853Z,127.18
2023-05-10T01:54:43.788Z,139.60
2023-05-10T01:57:13.153Z,139.88
2023-05-10T01:59:41.926Z,142.70
2023-05-10T02:02:12.394Z,134.00
2023-05-10T02:04:40.261Z,135.73
2023-05-10T02:07:07.247Z,126.22
2023-05-10T02:09:35.461Z,123.60
2023-05-10T02:12:03.609Z,122.60
2023-05-10T02:14:31.685Z,141.20
2023-05-10T02:16:59.535Z,129.82
2023-05-10T02:19:28.792Z,141.75
2023-05-10T02:21:57.155Z,133.45
2023-05-10T02:24:25.586Z,139.88
2023-05-10T02:26:56.740Z,139.45
2023-05-10T02:29:24.365Z,135.57
2023-05-10T02:31:52.272Z,130.00
2023-05-10T02:34:18.582Z,142.98
2023-05-10T02:36:47.172Z,150.07
2023-05-10T02:39:14.555Z,139.55
2023-05-10T02:41:41.710Z,143.93
2023-05-10T02:44:08.844Z,134.38
2023-05-10T02:46:35.811Z,130.63
2023-05-10T02:49:02.242Z,136.80
2023-05-10T02:51:32.560Z,121.43
2023-05-10T02:54:02.184Z,126.85
2023-05-10T02:56:33.922Z,121.60
2023-05-10T02:59:00.250Z,125.00
2023-05-10T03:01:26.660Z,120.72
2023-05-10T03:03:53.053Z,116.60
2023-05-10T03:06:19.429Z,114.63
2023-05-10T03:08:46.212Z,117.25
2023-05-10T03:11:29.570Z,101.35
2023-05-10T03:14:09.722Z,139.60
2023-05-10T03:16:47.639Z,146.73
2023-05-10T03:19:21.040Z,146.15
2023-05-10T03:21:50.816Z,152.05
2023-05-10T03:24:19.370Z,146.75
2023-05-10T03:26:48.247Z,154.35
2023-05-10T03:29:18.099Z,140.15
2023-05-10T03:31:44.895Z,129.40
2023-05-10T03:34:11.450Z,155.70
2023-05-10T03:36:37.827Z,167.38
2023-05-10T03:39:04.228Z,170.45
2023-05-10T03:41:31.007Z,176.65
2023-05-10T03:43:58.256Z,170.73
2023-05-10T03:46:24.674Z,169.18
2023-05-10T03:48:51.298Z,171.25
2023-05-10T03:51:18.263Z,187.23
2023-05-10T03:53:44.649Z,175.23
2023-05-10T03:56:11.063Z,168.52
2023-05-10T03:58:37.569Z,156.68
2023-05-10T04:01:04.142Z,174.70
2023-05-10T04:03:30.585Z,160.90
2023-05-10T04:06:01.487Z,156.82
2023-05-10T04:08:27.888Z,164.13
2023-05-10T04:10:54.352Z,169.63
2023-05-10T04:13:20.794Z,187.32
2023-05-10T04:15:47.227Z,183.80
2023-05-10T04:18:13.625Z,206.40
2023-05-10T04:20:40.002Z,169.30
2023-05-10T04:23:06.372Z,181.43
2023-05-10T04:25:34.716Z,173.43
2023-05-10T04:28:01.035Z,209.73
2023-05-10T04:30:29.410Z,234.45
2023-05-10T04:32:55.820Z,215.70
2023-05-10T04:35:22.525Z,182.02
2023-05-10T04:37:48.853Z,204.02
2023-05-10T04:40:15.420Z,215.70
2023-05-10T04:42:44.756Z,257.33
2023-05-10T04:45:11.185Z,220.13
2023-05-10T04:47:38.082Z,237.93
2023-05-10T04:50:04.947Z,233.73
2023-05-10T04:52:31.312Z,195.05
2023-05-10T04:54:57.653Z,179.25
2023-05-10T04:57:24.075Z,176.32
2023-05-10T04:59:52.150Z,153.02
2023-05-10T05:02:20.568Z,183.57
2023-05-10T05:04:46.980Z,156.05
2023-05-10T05:07:13.429Z,176.23
2023-05-10T05:09:39.808Z,160.55
2023-05-10T05:12:06.326Z,159.48
2023-05-10T05:14:32.739Z,178.77
2023-05-10T05:16:59.367Z,154.55
2023-05-10T05:19:26.858Z,150.93
2023-05-10T05:21:53.167Z,150.18
2023-05-10T05:24:19.535Z,159.30
2023-05-10T05:26:46.001Z,169.85
2023-05-10T05:29:12.401Z,163.38
2023-05-10T05:31:39.077Z,157.98
2023-05-10T05:34:05.508Z,164.07
2023-05-10T05:36:32.440Z,149.75
2023-05-10T05:38:58.802Z,141.40
2023-05-10T05:41:25.576Z,151.00
2023-05-10T05:43:51.979Z,133.25
2023-05-10T05:46:19.093Z,118.03
2023-05-10T05:48:45.543Z,116.82
2023-05-10T05:51:12.368Z,109.90
2023-05-10T05:53:38.739Z,108.28
2023-05-10T05:56:05.189Z,110.97
2023-05-10T05:58:31.529Z,112.05
2023-05-10T06:00:58.365Z,110.30
2023-05-10T06:03:24.950Z,99.35
2023-05-10T06:05:51.343Z,110.47
2023-05-10T06:08:17.741Z,107.07
2023-05-10T06:10:44.145Z,110.05
2023-05-10T06:13:10.918Z,105.57
2023-05-10T06:15:37.414Z,100.28
2023-05-10T06:18:03.953Z,107.88
2023-05-10T06:20:32.279Z,83.88
2023-05-10T06:22:59.175Z,84.40
2023-05-10T06:25:25.531Z,71.38
2023-05-10T06:27:56.343Z,74.50
2023-05-10T06:30:28.081Z,62.65
2023-05-10T06:32:54.763Z,68.40
2023-05-10T06:35:21.293Z,60.25
2023-05-10T06:37:47.786Z,57.38
2023-05-10T06:40:14.241Z,70.75
2023-05-10T06:42:40.671Z,54.45
2023-05-10T06:45:07.359Z,50.03
2023-05-10T06:47:34.113Z,41.17
2023-05-10T06:50:01.591Z,39.55
2023-05-10T06:52:28.068Z,39.17
2023-05-10T06:54:54.434Z,39.78
2023-05-10T06:57:31.336Z,35.25
2023-05-10T07:00:01.291Z,33.88
2023-05-10T07:02:28.033Z,32.33
2023-05-10T07:04:55.172Z,27.77
2023-05-10T07:07:21.775Z,31.48
2023-05-10T07:09:48.202Z,27.08
2023-05-10T07:12:15.873Z,22.75
2023-05-10T07:14:42.785Z,35.47
2023-05-10T07:17:09.531Z,26.98
2023-05-10T07:19:36.317Z,26.67
2023-05-10T07:22:02.650Z,23.05
2023-05-10T07:24:28.992Z,28.02
2023-05-10T07:26:55.496Z,25.35
2023-05-10T07:29:21.896Z,20.52
2023-05-10T07:31:48.361Z,23.30
2023-05-10T07:34:14.802Z,27.95
2023-05-10T07:36:41.160Z,24.58
2023-05-10T07:39:07.818Z,23.85
2023-05-10T07:41:35.809Z,23.70
2023-05-10T07:44:03.502Z,22.70
2023-05-10T07:46:29.929Z,26.38
2023-05-10T07:48:56.452Z,23.23
2023-05-10T07:51:22.910Z,30.90
2023-05-10T07:53:49.392Z,30.42
2023-05-10T07:56:23.084Z,30.27
2023-05-10T07:58:49.429Z,26.60
2023-05-10T08:01:15.784Z,25.20
2023-05-10T08:03:42.246Z,23.52
2023-05-10T08:06:08.685Z,17.67
2023-05-10T08:08:35.125Z,17.08
2023-05-10T08:11:01.516Z,19.02
2023-05-10T08:13:28.011Z,19.77
2023-05-10T08:15:54.501Z,20.38
2023-05-10T08:18:22.207Z,23.30
2023-05-10T08:20:48.652Z,19.58
2023-05-10T08:23:15.226Z,20.67
2023-05-10T08:25:44.459Z,21.73
2023-05-10T08:28:11.934Z,17.95
2023-05-10T08:30:38.484Z,18.77
2023-05-10T08:33:04.887Z,21.98
2023-05-10T08:35:31.872Z,21.15
2023-05-10T08:37:58.240Z,26.23
2023-05-10T08:40:25.216Z,22.13
2023-05-10T08:42:55.230Z,22.77
2023-05-10T08:45:23.988Z,20.55
2023-05-10T08:47:51.549Z,20.05
2023-05-10T08:50:20.192Z,17.40
2023-05-10T08:52:48.783Z,19.63
2023-05-10T08:55:16.403Z,16.83
2023-05-10T08:57:43.062Z,16.73
2023-05-10T09:00:10.244Z,16.80
2023-05-10T09:02:37.841Z,18.63
2023-05-10T09:05:05.942Z,16.88
2023-05-10T09:07:34.218Z,17.52
2023-05-10T09:10:01.589Z,16.63
2023-05-10T09:12:28.729Z,16.95
2023-05-10T09:14:55.236Z,14.27
2023-05-10T09:17:22.676Z,13.60
2023-05-10T09:19:49.100Z,12.13
2023-05-10T09:22:15.473Z,10.43
2023-05-10T09:24:46.003Z,11.63
2023-05-10T09:27:12.286Z,8.02
2023-05-10T09:29:43.132Z,14.18
2023-05-10T09:32:09.601Z,9.52
2023-05-10T09:34:36.434Z,6.22
2023-05-10T09:37:04.583Z,6.78
2023-05-10T09:39:34.763Z,3.97
2023-05-10T09:42:09.572Z,5.05
2023-05-10T09:44:36.673Z,3.30
2023-05-10T09:47:03.463Z,3.50
2023-05-10T09:49:30.251Z,4.32
2023-05-10T09:52:07.192Z,3.67
2023-05-10T09:54:34.285Z,4.05
2023-05-10T09:57:00.735Z,4.22
2023-05-10T09:59:29.371Z,7.53
2023-05-10T10:02:00.620Z,6.07
2023-05-10T10:04:27.554Z,4.40
2023-05-10T10:07:01.413Z,6.30
2023-05-10T10:09:27.927Z,7.18
2023-05-10T10:11:54.763Z,5.15
2023-05-10T10:14:21.201Z,6.78
2023-05-10T10:17:05.096Z,5.80
2023-05-10T10:19:37.233Z,5.97
2023-05-10T10:22:03.997Z,8.90
2023-05-10T10:24:30.384Z,11.75
2023-05-10T10:26:58.386Z,12.32
2023-05-10T10:29:27.552Z,8.00
2023-05-10T10:31:59.485Z,9.85
2023-05-10T10:34:37.033Z,8.93
2023-05-10T10:37:07.823Z,7.72
2023-05-10T10:39:38.041Z,7.43
2023-05-10T10:42:07.983Z,8.75
2023-05-10T10:44:34.870Z,6.50
2023-05-10T10:47:13.459Z,8.68
2023-05-10T10:49:44.699Z,6.50
2023-05-10T10:52:17.207Z,7.82
2023-05-10T10:54:50.913Z,6.35
2023-05-10T10:57:19.323Z,7.03
2023-05-10T10:59:46.289Z,6.75
2023-05-10T11:02:31.471Z,6.60
2023-05-10T11:04:57.908Z,9.88
2023-05-10T11:07:24.280Z,5.65
2023-05-10T11:09:50.809Z,5.63
2023-05-10T11:12:17.276Z,5.65
2023-05-10T11:14:43.664Z,7.22
2023-05-10T11:17:32.661Z,6.82
2023-05-10T11:20:12.682Z,6.60
2023-05-10T11:22:55.910Z,6.85
2023-05-10T11:25:27.458Z,6.28
2023-05-10T11:27:55.914Z,8.60
2023-05-10T11:30:22.274Z,9.52
2023-05-10T11:32:48.795Z,7.13
2023-05-10T11:35:16.418Z,6.15
2023-05-10T11:37:44.796Z,6.90
2023-05-10T11:40:11.534Z,5.95
2023-05-10T11:42:38.525Z,5.05
2023-05-10T11:45:06.015Z,9.15
2023-05-10T11:47:32.568Z,5.70
2023-05-10T11:49:59.058Z,5.40
2023-05-10T11:52:28.007Z,4.93
2023-05-10T11:54:55.886Z,5.70
2023-05-10T11:57:26.623Z,6.68
2023-05-10T12:00:22.149Z,5.63
2023-05-10T12:02:49.251Z,5.20
2023-05-10T12:05:16.164Z,5.18
2023-05-10T12:07:43.214Z,7.38
2023-05-10T12:10:11.020Z,4.43
2023-05-10T12:12:42.872Z,5.55
2023-05-10T12:15:14.078Z,4.53
2023-05-10T12:17:43.350Z,6.95
2023-05-10T12:20:17.518Z,4.68
2023-05-10T12:22:54.270Z,3.95
2023-05-10T12:25:23.814Z,4.72
2023-05-10T12:27:57.401Z,5.55
2023-05-10T12:30:25.134Z,6.93
2023-05-10T12:32:59.008Z,3.70
2023-05-10T12:35:32.150Z,7.13
2023-05-10T12:40:34.964Z,5.45
2023-05-10T12:43:02.776Z,6.22
2023-05-10T12:45:33.658Z,4.18
2023-05-10T12:48:00.350Z,3.72
2023-05-10T12:50:29.757Z,4.50
2023-05-10T12:52:57.314Z,2.85
2023-05-10T12:55:27.188Z,5.97
2023-05-10T12:57:53.661Z,5.18
2023-05-10T13:00:20.007Z,1.85
2023-05-10T13:02:47.414Z,2.88
2023-05-10T13:05:16.171Z,2.40
2023-05-10T13:07:44.679Z,3.78
2023-05-10T13:10:14.473Z,1.52
2023-05-10T13:12:44.876Z,3.97
2023-05-10T13:15:16.391Z,2.00
2023-05-10T13:17:52.094Z,1.80
2023-05-10T13:20:18.692Z,4.60
2023-05-10T13:22:45.833Z,3.53
2023-05-10T13:25:12.486Z,5.60
2023-05-10T13:27:39.943Z,2.70
2023-05-10T13:30:07.114Z,5.18
2023-05-10T13:32:33.907Z,9.70
2023-05-10T13:35:00.386Z,8.48
2023-05-10T13:37:26.740Z,12.93
2023-05-10T13:39:53.058Z,13.50
2023-05-10T13:42:19.403Z,10.48
2023-05-10T13:44:45.734Z,11.98
2023-05-10T13:47:12.274Z,13.68
2023-05-10T13:49:38.594Z,12.65
2023-05-10T13:52:07.704Z,10.90
2023-05-10T13:54:34.968Z,14.35
2023-05-10T13:57:01.620Z,12.45
2023-05-10T13:59:28.136Z,13.98
2023-05-10T14:01:54.539Z,15.65
2023-05-10T14:04:21.371Z,14.02
2023-05-10T14:06:47.822Z,12.63
2023-05-10T14:09:14.702Z,9.75
2023-05-10T14:11:44.057Z,13.00
2023-05-10T14:14:10.426Z,12.50
2023-05-10T14:16:36.847Z,9.82
2023-05-10T14:19:03.751Z,12.55
2023-05-10T14:21:33.066Z,12.10
2023-05-10T14:23:59.386Z,10.68
2023-05-10T14:26:25.765Z,11.98
2023-05-10T14:28:52.502Z,11.32
2023-05-10T14:31:21.168Z,13.65
2023-05-10T14:33:47.811Z,14.52
2023-05-10T14:36:14.724Z,13.73
2023-05-10T14:38:41.607Z,12.35
2023-05-10T14:41:10.569Z,12.05
2023-05-10T14:43:38.230Z,13.60
2023-05-10T14:46:04.614Z,15.73
2023-05-10T14:48:30.986Z,13.23
2023-05-10T14:50:57.526Z,15.07
2023-05-10T14:53:23.834Z,13.20
2023-05-10T14:55:50.162Z,13.38
2023-05-10T14:58:16.488Z,14.38
2023-05-10T15:00:44.459Z,13.00
2023-05-10T15:03:11.155Z,17.35
2023-05-10T15:05:38.575Z,17.08
2023-05-10T15:08:05.827Z,20.30
2023-05-10T15:10:34.366Z,10.95
2023-05-10T15:13:00.891Z,15.00
2023-05-10T15:15:27.238Z,17.88
2023-05-10T15:17:53.649Z,16.67
2023-05-10T15:20:20.075Z,15.80
2023-05-10T15:22:46.470Z,14.60
2023-05-10T15:25:12.778Z,13.77
2023-05-10T15:27:39.129Z,14.43
2023-05-10T15:30:05.752Z,10.55
2023-05-10T15:32:32.166Z,12.77
2023-05-10T15:34:58.958Z,11.48
2023-05-10T15:37:25.445Z,9.23
2023-05-10T15:39:51.767Z,9.82
2023-05-10T15:42:18.075Z,11.50
2023-05-10T15:44:45.454Z,9.23
2023-05-10T15:47:11.784Z,9.15
2023-05-10T15:49:38.085Z,10.45
2023-05-10T15:52:04.646Z,10.88
2023-05-10T15:54:31.568Z,11.73
2023-05-10T15:56:57.979Z,15.82
2023-05-10T15:59:24.345Z,10.75
2023-05-10T16:01:51.864Z,11.18
2023-05-10T16:04:18.273Z,10.90
2023-05-10T16:06:44.627Z,10.25
2023-05-10T16:09:10.977Z,8.73
2023-05-10T16:11:37.429Z,10.65
2023-05-10T16:14:04.863Z,11.70
2023-05-10T16:16:32.153Z,13.88
2023-05-10T16:19:00.940Z,15.30
2023-05-10T16:21:28.677Z,14.20
2023-05-10T16:23:55.033Z,12.07
2023-05-10T16:26:21.822Z,11.60
2023-05-10T16:28:49.116Z,9.50
2023-05-10T16:31:15.481Z,14.70
2023-05-10T16:33:41.894Z,10.05
2023-05-10T16:36:08.241Z,12.77
2023-05-10T16:38:34.654Z,13.45
2023-05-10T16:41:04.285Z,9.60
2023-05-10T16:43:33.497Z,10.02
2023-05-10T16:45:59.908Z,12.95
2023-05-10T16:48:26.245Z,11.02
2023-05-10T16:50:52.714Z,8.45
2023-05-10T16:53:19.100Z,11.15
2023-05-10T16:55:45.519Z,9.27
2023-05-10T16:58:11.914Z,7.60
2023-05-10T17:00:38.348Z,6.65
2023-05-10T17:03:04.797Z,7.47
2023-05-10T17:05:31.245Z,9.38
2023-05-10T17:07:57.831Z,8.05
2023-05-10T17:10:24.884Z,8.70
2023-05-10T17:12:51.364Z,8.55
2023-05-10T17:15:19.158Z,6.20
2023-05-10T17:17:46.741Z,5.05
2023-05-10T17:20:13.311Z,6.03
2023-05-10T17:22:39.762Z,6.32
2023-05-10T17:25:08.795Z,6.65
2023-05-10T17:27:35.191Z,4.88
2023-05-10T17:30:01.637Z,8.35
2023-05-10T17:32:28.027Z,5.10
2023-05-10T17:34:54.417Z,5.85
2023-05-10T17:37:28.579Z,5.53
2023-05-10T17:39:56.524Z,8.80
2023-05-10T17:42:27.260Z,6.28
2023-05-10T17:44:53.944Z,7.05
2023-05-10T17:47:20.600Z,7.20
2023-05-10T17:49:47.019Z,6.68
2023-05-10T17:52:17.046Z,7.78
2023-05-10T17:54:45.630Z,7.32
2023-05-10T17:57:12.293Z,9.10
2023-05-10T17:59:38.605Z,9.50
2023-05-10T18:02:04.942Z,7.38
2023-05-10T18:04:31.492Z,8.45
2023-05-10T18:07:01.670Z,8.57
2023-05-10T18:09:29.746Z,9.02
2023-05-10T18:11:56.512Z,13.05
2023-05-10T18:14:35.817Z,10.85
2023-05-10T18:17:06.038Z,9.52
2023-05-10T18:19:32.514Z,9.15
2023-05-10T18:21:58.830Z,11.85
2023-05-10T18:24:37.511Z,8.55
2023-05-10T18:27:05.910Z,9.57
2023-05-10T18:29:33.728Z,13.43
2023-05-10T18:32:01.444Z,9.48
2023-05-10T18:34:30.128Z,12.48
2023-05-10T18:36:56.608Z,10.75
2023-05-10T18:39:23.433Z,9.88
2023-05-10T18:41:50.165Z,13.40
2023-05-10T18:44:16.683Z,11.30
2023-05-10T18:46:43.400Z,12.23
2023-05-10T18:49:10.126Z,10.25
2023-05-10T18:51:37.336Z,10.95
2023-05-10T18:54:05.463Z,13.95
2023-05-10T18:56:31.804Z,11.60
2023-05-10T18:58:58.173Z,13.85
2023-05-10T19:01:24.587Z,13.18
2023-05-10T19:03:50.940Z,14.40
2023-05-10T19:06:17.286Z,19.20
2023-05-10T19:08:43.637Z,17.60
2023-05-10T19:11:12.931Z,15.75
2023-05-10T19:13:39.317Z,15.85
2023-05-10T19:16:06.913Z,21.90
2023-05-10T19:18:33.721Z,25.00
2023-05-10T19:21:03.669Z,15.05
2023-05-10T19:23:33.720Z,14.32
2023-05-10T19:26:01.559Z,23.08
2023-05-10T19:28:28.045Z,24.45
2023-05-10T19:30:54.494Z,17.20
2023-05-10T19:33:21.018Z,20.00
2023-05-10T19:35:49.370Z,18.55
2023-05-10T19:38:16.346Z,15.30
2023-05-10T19:40:45.661Z,17.45
2023-05-10T19:43:12.541Z,18.45
2023-05-10T19:45:38.981Z,19.10
2023-05-10T19:48:06.045Z,18.58
2023-05-10T19:50:32.582Z,16.83
2023-05-10T19:53:00.464Z,17.23
2023-05-10T19:55:29.607Z,20.02
2023-05-10T19:57:56.862Z,20.25
2023-05-10T20:00:24.143Z,21.38
2023-05-10T20:02:50.845Z,20.10
2023-05-10T20:05:17.502Z,18.67
2023-05-10T20:07:44.231Z,22.50
2023-05-10T20:10:11.223Z,18.55
2023-05-10T20:12:37.627Z,19.98
2023-05-10T20:15:08.703Z,17.27
2023-05-10T20:17:35.306Z,20.35
2023-05-10T20:20:01.877Z,21.75
2023-05-10T20:22:28.205Z,24.30
2023-05-10T20:24:56.230Z,19.08
2023-05-10T20:27:23.494Z,19.20
2023-05-10T20:29:51.018Z,22.33
2023-05-10T20:32:17.630Z,21.67
2023-05-10T20:34:44.080Z,17.48
2023-05-10T20:37:10.431Z,26.60
2023-05-10T20:39:36.884Z,27.85
2023-05-10T20:42:03.787Z,23.10
2023-05-10T20:44:30.195Z,21.25
2023-05-10T20:46:56.668Z,25.33
2023-05-10T20:49:23.124Z,21.35
2023-05-10T20:51:49.499Z,20.55
2023-05-10T20:54:15.946Z,25.95
2023-05-10T20:56:42.263Z,24.40
2023-05-10T20:59:08.653Z,20.67
2023-05-10T21:01:35.103Z,21.40
2023-05-10T21:04:01.890Z,27.27
2023-05-10T21:06:28.393Z,29.20
2023-05-10T21:08:58.163Z,27.35
2023-05-10T21:11:24.531Z,25.10
2023-05-10T21:13:51.170Z,31.42
2023-05-10T21:16:17.862Z,30.83
2023-05-10T21:18:44.233Z,22.88
2023-05-10T21:21:10.849Z,26.13
2023-05-10T21:23:38.793Z,26.45
2023-05-10T21:26:08.068Z,22.35
2023-05-10T21:28:34.450Z,23.85
2023-05-10T21:31:00.765Z,25.08
2023-05-10T21:33:27.104Z,21.13
2023-05-10T21:35:53.611Z,25.10
2023-05-10T21:38:19.989Z,20.98
2023-05-10T21:40:46.353Z,25.67
2023-05-10T21:43:12.674Z,22.17
2023-05-10T21:45:39.692Z,23.63
2023-05-10T21:48:06.197Z,27.67
2023-05-10T21:50:32.681Z,25.15
2023-05-10T21:52:59.196Z,31.83
2023-05-10T21:55:25.617Z,29.33
2023-05-10T21:57:52.003Z,29.65
2023-05-10T22:00:19.711Z,30.48
2023-05-10T22:02:46.639Z,31.02
2023-05-10T22:05:13.425Z,28.92
2023-05-10T22:07:39.790Z,31.05
2023-05-10T22:10:07.081Z,33.20
2023-05-10T22:12:33.379Z,44.10
2023-05-10T22:17:33.238Z,30.83
2023-05-10T22:19:59.633Z,31.70
2023-05-10T22:22:26.124Z,35.22
2023-05-10T22:24:52.560Z,35.88
2023-05-10T22:27:18.962Z,36.22
2023-05-10T22:29:46.419Z,34.35
2023-05-10T22:32:12.710Z,31.27
2023-05-10T22:34:39.180Z,30.73
2023-05-10T22:37:05.613Z,31.58
2023-05-10T22:39:31.962Z,29.35
2023-05-10T22:41:58.374Z,29.80
2023-05-10T22:44:24.767Z,33.78
2023-05-10T22:46:51.744Z,32.22
2023-05-10T22:49:18.249Z,27.92
2023-05-10T22:51:44.579Z,30.15
2023-05-10T22:54:11.024Z,29.30
2023-05-10T22:56:37.320Z,28.02
2023-05-10T22:59:03.681Z,26.75
2023-05-10T23:01:30.081Z,27.10
2023-05-10T23:03:56.488Z,29.17
2023-05-10T23:06:22.898Z,32.60
2023-05-10T23:08:49.283Z,29.88
2023-05-10T23:11:16.220Z,26.40
2023-05-10T23:13:42.594Z,29.52
2023-05-10T23:16:09.277Z,30.27
2023-05-10T23:18:35.805Z,26.25
2023-05-10T23:21:02.213Z,29.23
2023-05-10T23:23:28.551Z,28.98
2023-05-10T23:25:54.876Z,32.50
2023-05-10T23:28:21.220Z,26.33
2023-05-10T23:30:47.549Z,26.23
2023-05-10T23:33:14.194Z,30.33
2023-05-10T23:35:40.518Z,32.55
2023-05-10T23:38:06.890Z,29.02
2023-05-10T23:40:35.098Z,30.63
2023-05-10T23:43:01.508Z,28.15
2023-05-10T23:45:27.994Z,32.83
2023-05-10T23:47:54.387Z,34.38
2023-05-10T23:50:20.827Z,29.42
2023-05-10T23:52:47.140Z,32.35
2023-05-10T23:55:13.519Z,28.08
2023-05-10T23:57:39.846Z,36.67
